TOM1FM GCTS-EGCC
Flight info
| Callsign | TOM1FM |
|---|---|
| Flight time | N/A |
| Altitude | 34000 |
| Route | KONBA UN866 BEXAL DCT TERVA DCT AGADO DCT KORUL/N0454F360 DCT EBOMO DCT RUSIB DCT NOZHU/N0451F370 DCT SHIRI DCT TOJAQ DCT EPACE DCT ACCOP DCT MOCQO P16 AXCIS |
| Aircraft | B738/M-SDE2E3FGHIRWXY/LB1 |
Departure
| Time | 2026-04-30 19:35 |
|---|---|
| Airport | Tenerife Sur Airport (GCTS) |
Arrival
| Time | N/A |
|---|---|
| Airport | Manchester Airport (EGCC) |
| Time | Latitude | Longitude | Altitude | Speed | Heading |
|---|---|---|---|---|---|
| 2026-04-30 18:57 | 28.04727 | -16.57629 | 225 ft | 0 kts | 338° |
| 2026-04-30 19:24 | 28.04703 | -16.57618 | 225 ft | 4 kts | 338° |
| 2026-04-30 19:24 | 28.04683 | -16.57609 | 226 ft | 4 kts | 343° |
| 2026-04-30 19:24 | 28.04640 | -16.57625 | 224 ft | 4 kts | 66° |
| 2026-04-30 19:25 | 28.04637 | -16.57633 | 225 ft | 1 kts | 69° |
| 2026-04-30 19:27 | 28.04657 | -16.57575 | 226 ft | 9 kts | 69° |
| 2026-04-30 19:28 | 28.04683 | -16.57505 | 224 ft | 10 kts | 63° |
| 2026-04-30 19:28 | 28.04733 | -16.57369 | 224 ft | 9 kts | 68° |
| 2026-04-30 19:29 | 28.04778 | -16.57239 | 224 ft | 9 kts | 68° |
| 2026-04-30 19:29 | 28.04763 | -16.57181 | 223 ft | 8 kts | 144° |
| 2026-04-30 19:30 | 28.04721 | -16.57016 | 220 ft | 13 kts | 69° |
| 2026-04-30 19:30 | 28.04803 | -16.56783 | 220 ft | 17 kts | 68° |
| 2026-04-30 19:31 | 28.04885 | -16.56548 | 222 ft | 15 kts | 68° |
| 2026-04-30 19:31 | 28.04923 | -16.56438 | 218 ft | 15 kts | 68° |
| 2026-04-30 19:31 | 28.04995 | -16.56234 | 218 ft | 13 kts | 69° |
| 2026-04-30 19:32 | 28.05028 | -16.56137 | 224 ft | 13 kts | 68° |
| 2026-04-30 19:32 | 28.05061 | -16.56044 | 219 ft | 13 kts | 69° |
| 2026-04-30 19:32 | 28.05093 | -16.55953 | 218 ft | 12 kts | 68° |
| 2026-04-30 19:32 | 28.05124 | -16.55863 | 218 ft | 12 kts | 68° |
| 2026-04-30 19:33 | 28.05144 | -16.55774 | 218 ft | 12 kts | 100° |
| 2026-04-30 19:33 | 28.05084 | -16.55728 | 222 ft | 11 kts | 187° |
| 2026-04-30 19:33 | 28.05014 | -16.55762 | 219 ft | 11 kts | 209° |
| 2026-04-30 19:33 | 28.04953 | -16.55812 | 221 ft | 11 kts | 235° |
| 2026-04-30 19:34 | 28.04919 | -16.55903 | 215 ft | 19 kts | 248° |
| 2026-04-30 19:34 | 28.04850 | -16.56100 | 217 ft | 64 kts | 248° |
| 2026-04-30 19:34 | 28.04215 | -16.57910 | 256 ft | 170 kts | 248° |
| 2026-04-30 19:35 | 28.03768 | -16.59169 | 850 ft | 176 kts | 248° |
| 2026-04-30 19:35 | 28.03289 | -16.60482 | 1468 ft | 185 kts | 248° |
| 2026-04-30 19:35 | 28.02777 | -16.61863 | 2025 ft | 200 kts | 247° |
| 2026-04-30 19:35 | 28.02210 | -16.63378 | 2361 ft | 214 kts | 247° |
| 2026-04-30 19:36 | 28.01625 | -16.64933 | 2848 ft | 220 kts | 247° |
| 2026-04-30 19:36 | 28.00989 | -16.66512 | 3426 ft | 222 kts | 237° |
| 2026-04-30 19:36 | 27.98292 | -16.67808 | 4503 ft | 226 kts | 169° |
| 2026-04-30 19:37 | 27.96790 | -16.67251 | 5041 ft | 230 kts | 158° |
| 2026-04-30 19:37 | 27.95313 | -16.66538 | 5583 ft | 232 kts | 158° |
| 2026-04-30 19:37 | 27.93826 | -16.65815 | 6166 ft | 232 kts | 158° |
| 2026-04-30 19:37 | 27.92334 | -16.65099 | 6700 ft | 234 kts | 159° |
| 2026-04-30 19:38 | 27.90879 | -16.64292 | 7238 ft | 235 kts | 143° |
| 2026-04-30 19:38 | 27.89927 | -16.62797 | 7704 ft | 242 kts | 109° |
| 2026-04-30 19:38 | 27.89841 | -16.60841 | 7873 ft | 263 kts | 75° |
| 2026-04-30 19:38 | 27.90510 | -16.58878 | 8230 ft | 272 kts | 67° |
| 2026-04-30 19:39 | 27.91277 | -16.56904 | 8712 ft | 275 kts | 67° |
| 2026-04-30 19:39 | 27.92055 | -16.54910 | 9250 ft | 278 kts | 67° |
| 2026-04-30 19:39 | 27.92824 | -16.52921 | 9752 ft | 281 kts | 68° |
| 2026-04-30 19:39 | 27.93602 | -16.50884 | 10227 ft | 284 kts | 68° |
| 2026-04-30 19:40 | 27.94386 | -16.48812 | 10670 ft | 288 kts | 68° |
| 2026-04-30 19:40 | 27.95194 | -16.46665 | 10871 ft | 307 kts | 68° |
| 2026-04-30 19:40 | 27.96059 | -16.44355 | 11048 ft | 328 kts | 68° |
| 2026-04-30 19:40 | 27.96976 | -16.41904 | 11206 ft | 348 kts | 68° |
| 2026-04-30 19:41 | 27.97944 | -16.39314 | 11353 ft | 367 kts | 68° |
| 2026-04-30 19:41 | 27.98967 | -16.36579 | 11515 ft | 384 kts | 67° |
| 2026-04-30 19:41 | 28.00020 | -16.33761 | 11910 ft | 393 kts | 67° |
| 2026-04-30 19:41 | 28.01230 | -16.30989 | 12433 ft | 396 kts | 54° |
| 2026-04-30 19:42 | 28.02962 | -16.28547 | 13008 ft | 398 kts | 48° |
| 2026-04-30 19:42 | 28.04788 | -16.26166 | 13540 ft | 402 kts | 48° |
| 2026-04-30 19:42 | 28.06606 | -16.23795 | 14014 ft | 406 kts | 48° |
| 2026-04-30 19:42 | 28.08453 | -16.21351 | 14480 ft | 410 kts | 48° |
| 2026-04-30 19:43 | 28.10296 | -16.18876 | 14978 ft | 412 kts | 48° |
| 2026-04-30 19:43 | 28.12140 | -16.16378 | 15468 ft | 415 kts | 48° |
| 2026-04-30 19:43 | 28.13994 | -16.13854 | 15945 ft | 418 kts | 48° |
| 2026-04-30 19:44 | 28.17731 | -16.08761 | 16880 ft | 424 kts | 48° |
| 2026-04-30 19:44 | 28.19635 | -16.06197 | 17335 ft | 426 kts | 44° |
| 2026-04-30 19:44 | 28.21949 | -16.04143 | 17735 ft | 422 kts | 22° |
| 2026-04-30 19:44 | 28.24695 | -16.03085 | 18237 ft | 415 kts | 6° |
| 2026-04-30 19:45 | 28.27544 | -16.02912 | 18675 ft | 408 kts | 350° |
| 2026-04-30 19:45 | 28.30367 | -16.03285 | 19103 ft | 409 kts | 348° |
| 2026-04-30 19:45 | 28.33194 | -16.03717 | 19481 ft | 411 kts | 348° |
| 2026-04-30 19:45 | 28.36035 | -16.04164 | 19860 ft | 414 kts | 348° |
| 2026-04-30 19:46 | 28.38874 | -16.04602 | 20256 ft | 416 kts | 348° |
| 2026-04-30 19:46 | 28.41757 | -16.05034 | 20659 ft | 419 kts | 348° |
| 2026-04-30 19:46 | 28.44665 | -16.05459 | 21046 ft | 421 kts | 348° |
| 2026-04-30 19:46 | 28.47581 | -16.05878 | 21428 ft | 424 kts | 348° |
| 2026-04-30 19:47 | 28.50518 | -16.06296 | 21802 ft | 426 kts | 348° |
| 2026-04-30 19:47 | 28.52468 | -16.06573 | 22051 ft | 428 kts | 348° |
| 2026-04-30 19:47 | 28.56397 | -16.07130 | 22539 ft | 431 kts | 348° |
| 2026-04-30 19:47 | 28.59378 | -16.07553 | 22915 ft | 433 kts | 348° |
| 2026-04-30 19:48 | 28.62376 | -16.07979 | 23256 ft | 436 kts | 348° |
| 2026-04-30 19:48 | 28.65386 | -16.08407 | 23597 ft | 438 kts | 348° |
| 2026-04-30 19:48 | 28.68423 | -16.08839 | 23896 ft | 440 kts | 348° |
| 2026-04-30 19:48 | 28.71468 | -16.09273 | 24177 ft | 442 kts | 348° |
| 2026-04-30 19:49 | 28.74526 | -16.09709 | 24451 ft | 444 kts | 348° |
| 2026-04-30 19:49 | 28.80690 | -16.10588 | 24995 ft | 448 kts | 347° |
| 2026-04-30 19:49 | 28.83792 | -16.11031 | 25261 ft | 450 kts | 347° |
| 2026-04-30 19:50 | 28.86906 | -16.11476 | 25542 ft | 452 kts | 347° |
| 2026-04-30 19:50 | 28.90045 | -16.11924 | 25822 ft | 454 kts | 347° |
| 2026-04-30 19:50 | 28.93188 | -16.12372 | 26082 ft | 456 kts | 348° |
| 2026-04-30 19:50 | 28.96400 | -16.12362 | 26271 ft | 472 kts | 5° |
| 2026-04-30 19:51 | 28.99556 | -16.11386 | 26542 ft | 478 kts | 12° |
| 2026-04-30 19:51 | 29.02734 | -16.10243 | 26806 ft | 480 kts | 12° |
| 2026-04-30 19:51 | 29.05927 | -16.09097 | 27016 ft | 482 kts | 12° |
| 2026-04-30 19:51 | 29.09144 | -16.07955 | 27224 ft | 485 kts | 12° |
| 2026-04-30 19:52 | 29.12381 | -16.06820 | 27455 ft | 486 kts | 12° |
| 2026-04-30 19:52 | 29.15626 | -16.05694 | 27718 ft | 488 kts | 11° |
| 2026-04-30 19:52 | 29.18879 | -16.04571 | 27948 ft | 489 kts | 11° |
| 2026-04-30 19:52 | 29.22148 | -16.03446 | 28169 ft | 491 kts | 11° |
| 2026-04-30 19:53 | 29.25429 | -16.02317 | 28373 ft | 493 kts | 11° |
| 2026-04-30 19:53 | 29.28727 | -16.01181 | 28608 ft | 494 kts | 11° |
| 2026-04-30 19:53 | 29.32020 | -16.00045 | 28920 ft | 493 kts | 11° |
| 2026-04-30 19:53 | 29.35305 | -15.98909 | 29275 ft | 492 kts | 11° |
| 2026-04-30 19:54 | 29.38550 | -15.97786 | 29588 ft | 491 kts | 11° |
| 2026-04-30 19:54 | 29.41820 | -15.96655 | 29868 ft | 492 kts | 11° |
| 2026-04-30 19:54 | 29.45102 | -15.95519 | 30168 ft | 492 kts | 11° |
| 2026-04-30 19:54 | 29.48377 | -15.94384 | 30431 ft | 492 kts | 11° |
| 2026-04-30 19:55 | 29.51655 | -15.93248 | 30751 ft | 490 kts | 11° |
| 2026-04-30 19:55 | 29.54904 | -15.92119 | 31109 ft | 487 kts | 11° |
| 2026-04-30 19:55 | 29.58139 | -15.90995 | 31456 ft | 484 kts | 11° |
| 2026-04-30 19:55 | 29.61356 | -15.89877 | 31767 ft | 482 kts | 11° |
| 2026-04-30 19:56 | 29.64541 | -15.88770 | 32037 ft | 481 kts | 11° |
| 2026-04-30 19:56 | 29.67739 | -15.87658 | 32328 ft | 480 kts | 11° |
| 2026-04-30 19:56 | 29.70930 | -15.86548 | 32640 ft | 478 kts | 10° |
| 2026-04-30 19:56 | 29.74070 | -15.85454 | 32933 ft | 476 kts | 10° |
| 2026-04-30 19:57 | 29.77244 | -15.84348 | 33214 ft | 475 kts | 10° |
| 2026-04-30 19:57 | 29.80409 | -15.83245 | 33478 ft | 473 kts | 10° |
| 2026-04-30 19:57 | 29.83557 | -15.82146 | 33736 ft | 472 kts | 10° |
| 2026-04-30 19:57 | 29.86704 | -15.81048 | 34003 ft | 471 kts | 10° |
| 2026-04-30 19:58 | 29.89835 | -15.79954 | 34146 ft | 472 kts | 10° |
| 2026-04-30 19:58 | 29.92994 | -15.78851 | 34133 ft | 473 kts | 10° |
| 2026-04-30 19:58 | 29.99282 | -15.76649 | 34129 ft | 470 kts | 10° |
| 2026-04-30 19:59 | 30.05497 | -15.74470 | 34140 ft | 467 kts | 10° |
| 2026-04-30 20:00 | 30.14799 | -15.71207 | 34135 ft | 464 kts | 10° |
| 2026-04-30 20:00 | 30.20972 | -15.69039 | 34141 ft | 463 kts | 10° |
| 2026-04-30 20:01 | 30.30192 | -15.65795 | 34162 ft | 465 kts | 10° |
| 2026-04-30 20:01 | 30.36399 | -15.63608 | 34158 ft | 468 kts | 9° |
| 2026-04-30 20:02 | 30.45789 | -15.60292 | 34146 ft | 472 kts | 10° |
| 2026-04-30 20:03 | 30.55247 | -15.56944 | 34140 ft | 475 kts | 10° |
| 2026-04-30 20:03 | 30.61587 | -15.54696 | 34142 ft | 477 kts | 10° |
| 2026-04-30 20:04 | 30.67912 | -15.52449 | 34139 ft | 478 kts | 10° |
| 2026-04-30 20:05 | 30.77449 | -15.49056 | 34141 ft | 477 kts | 10° |
| 2026-04-30 20:05 | 30.86973 | -15.45661 | 34172 ft | 476 kts | 10° |
| 2026-04-30 20:06 | 30.93301 | -15.43402 | 34152 ft | 475 kts | 10° |
| 2026-04-30 20:06 | 30.99620 | -15.41142 | 34141 ft | 474 kts | 9° |
| 2026-04-30 20:07 | 31.05924 | -15.38885 | 34141 ft | 473 kts | 10° |
| 2026-04-30 20:08 | 31.15364 | -15.35500 | 34171 ft | 472 kts | 10° |
| 2026-04-30 20:08 | 31.21651 | -15.33242 | 34156 ft | 473 kts | 10° |
| 2026-04-30 20:09 | 31.27955 | -15.30974 | 34152 ft | 475 kts | 10° |
| 2026-04-30 20:09 | 31.31072 | -15.29627 | 34123 ft | 486 kts | 23° |
| 2026-04-30 20:09 | 31.36790 | -15.25262 | 34142 ft | 493 kts | 28° |
| 2026-04-30 20:10 | 31.45256 | -15.18484 | 34160 ft | 495 kts | 28° |
| 2026-04-30 20:11 | 31.53855 | -15.11753 | 34145 ft | 496 kts | 27° |
| 2026-04-30 20:11 | 31.59609 | -15.07274 | 34144 ft | 496 kts | 27° |
| 2026-04-30 20:12 | 31.68252 | -15.00532 | 34143 ft | 496 kts | 27° |
| 2026-04-30 20:13 | 31.73995 | -14.96039 | 34167 ft | 496 kts | 27° |
| 2026-04-30 20:13 | 31.79740 | -14.91537 | 34153 ft | 495 kts | 27° |
| 2026-04-30 20:14 | 31.85438 | -14.87066 | 34138 ft | 494 kts | 27° |
| 2026-04-30 20:14 | 31.91153 | -14.82574 | 34143 ft | 493 kts | 27° |
| 2026-04-30 20:15 | 31.96865 | -14.78079 | 34149 ft | 492 kts | 27° |
| 2026-04-30 20:15 | 32.02532 | -14.73612 | 34172 ft | 492 kts | 27° |
| 2026-04-30 20:16 | 32.08231 | -14.69114 | 34147 ft | 492 kts | 27° |
| 2026-04-30 20:16 | 32.13916 | -14.64619 | 34146 ft | 491 kts | 27° |
| 2026-04-30 20:17 | 32.19597 | -14.60120 | 34154 ft | 491 kts | 27° |
| 2026-04-30 20:17 | 32.25239 | -14.55646 | 34147 ft | 491 kts | 27° |
| 2026-04-30 20:18 | 32.30920 | -14.51134 | 34146 ft | 492 kts | 27° |
| 2026-04-30 20:18 | 32.36609 | -14.46610 | 34154 ft | 493 kts | 27° |
| 2026-04-30 20:19 | 32.42311 | -14.42067 | 34153 ft | 493 kts | 27° |
| 2026-04-30 20:19 | 32.47974 | -14.37548 | 34151 ft | 494 kts | 27° |
| 2026-04-30 20:20 | 32.53681 | -14.32986 | 34154 ft | 494 kts | 27° |
| 2026-04-30 20:20 | 32.58421 | -14.29192 | 34154 ft | 494 kts | 27° |
| 2026-04-30 20:21 | 32.64124 | -14.24622 | 34151 ft | 494 kts | 27° |
| 2026-04-30 20:21 | 32.70743 | -14.19307 | 34155 ft | 494 kts | 27° |
| 2026-04-30 20:22 | 32.75475 | -14.15502 | 34152 ft | 494 kts | 27° |
| 2026-04-30 20:22 | 32.81168 | -14.10917 | 34154 ft | 493 kts | 27° |
| 2026-04-30 20:23 | 32.86848 | -14.06336 | 34154 ft | 493 kts | 27° |
| 2026-04-30 20:23 | 32.92519 | -14.01755 | 34152 ft | 493 kts | 27° |
| 2026-04-30 20:24 | 32.98185 | -13.97170 | 34151 ft | 492 kts | 27° |
| 2026-04-30 20:24 | 33.03811 | -13.92611 | 34152 ft | 492 kts | 27° |
| 2026-04-30 20:25 | 33.12286 | -13.85728 | 34152 ft | 491 kts | 27° |
| 2026-04-30 20:26 | 33.20762 | -13.78815 | 34163 ft | 491 kts | 27° |
| 2026-04-30 20:26 | 33.29214 | -13.71879 | 34155 ft | 491 kts | 28° |
| 2026-04-30 20:27 | 33.40486 | -13.62607 | 34158 ft | 491 kts | 28° |
| 2026-04-30 20:28 | 33.51721 | -13.53339 | 34161 ft | 492 kts | 28° |
| 2026-04-30 20:30 | 33.65838 | -13.41648 | 34156 ft | 493 kts | 28° |
| 2026-04-30 20:31 | 33.82773 | -13.27562 | 34166 ft | 495 kts | 28° |
| 2026-04-30 20:32 | 33.96932 | -13.15731 | 34155 ft | 495 kts | 28° |
| 2026-04-30 20:33 | 34.05416 | -13.08618 | 34169 ft | 495 kts | 28° |
| 2026-04-30 20:34 | 34.13889 | -13.01497 | 34161 ft | 495 kts | 28° |
| 2026-04-30 20:35 | 34.22314 | -12.94398 | 34158 ft | 494 kts | 28° |
| 2026-04-30 20:35 | 34.30789 | -12.87264 | 34163 ft | 494 kts | 27° |
| 2026-04-30 20:36 | 34.36448 | -12.82531 | 34168 ft | 494 kts | 27° |
| 2026-04-30 20:37 | 34.44899 | -12.75444 | 34175 ft | 494 kts | 27° |
| 2026-04-30 20:37 | 34.50558 | -12.70682 | 34167 ft | 494 kts | 27° |
| 2026-04-30 20:38 | 34.56207 | -12.65920 | 34166 ft | 494 kts | 28° |
| 2026-04-30 20:38 | 34.61863 | -12.61143 | 34176 ft | 495 kts | 28° |
| 2026-04-30 20:39 | 34.70343 | -12.53967 | 34165 ft | 495 kts | 28° |
| 2026-04-30 20:40 | 34.78778 | -12.46811 | 34166 ft | 495 kts | 28° |
| 2026-04-30 20:40 | 34.84425 | -12.42009 | 34168 ft | 494 kts | 28° |
| 2026-04-30 20:41 | 34.92894 | -12.34794 | 34175 ft | 495 kts | 28° |
| 2026-04-30 20:41 | 34.98533 | -12.29979 | 34171 ft | 494 kts | 28° |
| 2026-04-30 20:42 | 35.04163 | -12.25164 | 34171 ft | 494 kts | 28° |
| 2026-04-30 20:43 | 35.12598 | -12.17934 | 34168 ft | 493 kts | 28° |
| 2026-04-30 20:43 | 35.18176 | -12.13143 | 34173 ft | 494 kts | 28° |
| 2026-04-30 20:44 | 35.26598 | -12.05893 | 34169 ft | 493 kts | 28° |
| 2026-04-30 20:45 | 35.37815 | -11.96208 | 34169 ft | 492 kts | 28° |
| 2026-04-30 20:45 | 35.43409 | -11.91365 | 34168 ft | 492 kts | 28° |
| 2026-04-30 20:46 | 35.54553 | -11.81693 | 34171 ft | 492 kts | 28° |
| 2026-04-30 20:47 | 35.62934 | -11.74396 | 34171 ft | 492 kts | 28° |
| 2026-04-30 20:48 | 35.71317 | -11.67080 | 34180 ft | 492 kts | 29° |
| 2026-04-30 20:48 | 35.76910 | -11.62187 | 34172 ft | 492 kts | 29° |
| 2026-04-30 20:49 | 35.82491 | -11.57295 | 34171 ft | 493 kts | 29° |
| 2026-04-30 20:50 | 35.90837 | -11.49964 | 34169 ft | 493 kts | 29° |
| 2026-04-30 20:50 | 35.96502 | -11.45229 | 34187 ft | 486 kts | 21° |
| 2026-04-30 20:51 | 36.02699 | -11.42269 | 34181 ft | 474 kts | 10° |
| 2026-04-30 20:51 | 36.12181 | -11.38683 | 34160 ft | 475 kts | 10° |
| 2026-04-30 20:52 | 36.18452 | -11.36258 | 34173 ft | 475 kts | 10° |
| 2026-04-30 20:53 | 36.27913 | -11.32532 | 34173 ft | 476 kts | 12° |
| 2026-04-30 20:53 | 36.34233 | -11.30030 | 34167 ft | 476 kts | 12° |
| 2026-04-30 20:54 | 36.43707 | -11.26274 | 34172 ft | 476 kts | 12° |
| 2026-04-30 20:55 | 36.53169 | -11.22516 | 34167 ft | 476 kts | 12° |
| 2026-04-30 20:55 | 36.59481 | -11.20004 | 34165 ft | 476 kts | 12° |
| 2026-04-30 20:56 | 36.68933 | -11.16233 | 34168 ft | 475 kts | 12° |
| 2026-04-30 20:57 | 36.78387 | -11.12453 | 34171 ft | 476 kts | 13° |
| 2026-04-30 20:57 | 36.84647 | -11.09944 | 34168 ft | 475 kts | 13° |
| 2026-04-30 20:58 | 36.94090 | -11.06151 | 34165 ft | 475 kts | 13° |
| 2026-04-30 20:58 | 37.00386 | -11.03617 | 34171 ft | 475 kts | 13° |
| 2026-04-30 20:59 | 37.09830 | -10.99807 | 34166 ft | 475 kts | 13° |
| 2026-04-30 21:00 | 37.22421 | -10.94712 | 34190 ft | 474 kts | 14° |
| 2026-04-30 21:01 | 37.31798 | -10.90906 | 34169 ft | 474 kts | 14° |
| 2026-04-30 21:02 | 37.41201 | -10.87080 | 34157 ft | 473 kts | 14° |
| 2026-04-30 21:02 | 37.47451 | -10.84531 | 34177 ft | 472 kts | 14° |
| 2026-04-30 21:03 | 37.53691 | -10.81981 | 34168 ft | 471 kts | 14° |
| 2026-04-30 21:03 | 37.59933 | -10.79427 | 34166 ft | 471 kts | 14° |
| 2026-04-30 21:04 | 37.66160 | -10.76874 | 34160 ft | 470 kts | 14° |
| 2026-04-30 21:04 | 37.75495 | -10.73038 | 34160 ft | 470 kts | 14° |
| 2026-04-30 21:05 | 37.81721 | -10.70475 | 34164 ft | 470 kts | 14° |
| 2026-04-30 21:05 | 37.87939 | -10.67909 | 34164 ft | 470 kts | 14° |
| 2026-04-30 21:06 | 37.93112 | -10.65772 | 34164 ft | 471 kts | 14° |
| 2026-04-30 21:06 | 37.99338 | -10.63195 | 34159 ft | 471 kts | 14° |
| 2026-04-30 21:07 | 38.06588 | -10.60189 | 34160 ft | 472 kts | 14° |
| 2026-04-30 21:07 | 38.11813 | -10.58018 | 34161 ft | 472 kts | 14° |
| 2026-04-30 21:08 | 38.18020 | -10.55435 | 34185 ft | 472 kts | 14° |
| 2026-04-30 21:08 | 38.24265 | -10.52832 | 34162 ft | 472 kts | 14° |
| 2026-04-30 21:09 | 38.30503 | -10.50226 | 34156 ft | 471 kts | 14° |
| 2026-04-30 21:09 | 38.36739 | -10.47617 | 34157 ft | 470 kts | 14° |
| 2026-04-30 21:10 | 38.42960 | -10.45009 | 34173 ft | 470 kts | 14° |
| 2026-04-30 21:10 | 38.49118 | -10.42423 | 34161 ft | 469 kts | 14° |
| 2026-04-30 21:11 | 38.55316 | -10.39817 | 34156 ft | 468 kts | 14° |
| 2026-04-30 21:11 | 38.61509 | -10.37206 | 34157 ft | 467 kts | 14° |
| 2026-04-30 21:12 | 38.67688 | -10.34598 | 34170 ft | 467 kts | 14° |
| 2026-04-30 21:12 | 38.73823 | -10.32003 | 34159 ft | 467 kts | 14° |
| 2026-04-30 21:13 | 38.79998 | -10.29387 | 34153 ft | 466 kts | 14° |
| 2026-04-30 21:13 | 38.86161 | -10.26770 | 34158 ft | 466 kts | 14° |
| 2026-04-30 21:14 | 38.92319 | -10.24152 | 34170 ft | 466 kts | 14° |
| 2026-04-30 21:14 | 38.98494 | -10.21521 | 34156 ft | 467 kts | 14° |
| 2026-04-30 21:15 | 39.04661 | -10.18889 | 34163 ft | 467 kts | 14° |
| 2026-04-30 21:15 | 39.10790 | -10.16268 | 34159 ft | 467 kts | 14° |
| 2026-04-30 21:16 | 39.16966 | -10.13622 | 34161 ft | 467 kts | 14° |
| 2026-04-30 21:16 | 39.23134 | -10.10974 | 34154 ft | 467 kts | 14° |
| 2026-04-30 21:17 | 39.29300 | -10.08323 | 34155 ft | 467 kts | 14° |
| 2026-04-30 21:17 | 39.35473 | -10.05663 | 34154 ft | 466 kts | 14° |
| 2026-04-30 21:18 | 39.41591 | -10.03022 | 34167 ft | 466 kts | 13° |
| 2026-04-30 21:18 | 39.47743 | -10.00362 | 34157 ft | 466 kts | 13° |
| 2026-04-30 21:19 | 39.53892 | -9.97698 | 34154 ft | 465 kts | 13° |
| 2026-04-30 21:19 | 39.60027 | -9.95035 | 34155 ft | 464 kts | 13° |
| 2026-04-30 21:20 | 39.66117 | -9.92387 | 34157 ft | 464 kts | 13° |
| 2026-04-30 21:20 | 39.72239 | -9.89720 | 34154 ft | 464 kts | 13° |
| 2026-04-30 21:21 | 39.78361 | -9.87048 | 34156 ft | 464 kts | 13° |
| 2026-04-30 21:22 | 39.87536 | -9.83034 | 34152 ft | 464 kts | 13° |
| 2026-04-30 21:23 | 39.99760 | -9.77668 | 34149 ft | 462 kts | 13° |
| 2026-04-30 21:23 | 40.08897 | -9.73644 | 34160 ft | 461 kts | 13° |
| 2026-04-30 21:24 | 40.14971 | -9.70962 | 34150 ft | 461 kts | 13° |
| 2026-04-30 21:24 | 40.21004 | -9.68294 | 34153 ft | 460 kts | 13° |
| 2026-04-30 21:25 | 40.30106 | -9.64258 | 34152 ft | 460 kts | 13° |
| 2026-04-30 21:26 | 40.39207 | -9.60212 | 34150 ft | 460 kts | 13° |
| 2026-04-30 21:27 | 40.48311 | -9.56155 | 34150 ft | 461 kts | 13° |
| 2026-04-30 21:27 | 40.54357 | -9.53455 | 34165 ft | 461 kts | 13° |
| 2026-04-30 21:28 | 40.63488 | -9.49365 | 34152 ft | 462 kts | 13° |
| 2026-04-30 21:29 | 40.72643 | -9.45252 | 34146 ft | 463 kts | 14° |
| 2026-04-30 21:30 | 40.87929 | -9.38359 | 34155 ft | 467 kts | 14° |
| 2026-04-30 21:31 | 41.03404 | -9.31346 | 34164 ft | 472 kts | 15° |
| 2026-04-30 21:32 | 41.12728 | -9.27103 | 34150 ft | 475 kts | 16° |
| 2026-04-30 21:32 | 41.19007 | -9.24239 | 34152 ft | 477 kts | 16° |
| 2026-04-30 21:33 | 41.28458 | -9.19917 | 34159 ft | 480 kts | 17° |
| 2026-04-30 21:34 | 41.34778 | -9.17018 | 34149 ft | 481 kts | 17° |
| 2026-04-30 21:34 | 41.44252 | -9.12663 | 34151 ft | 481 kts | 18° |
| 2026-04-30 21:35 | 41.50591 | -9.09742 | 34149 ft | 482 kts | 18° |
| 2026-04-30 21:35 | 41.56940 | -9.06810 | 34144 ft | 483 kts | 19° |
| 2026-04-30 21:36 | 41.63293 | -9.03869 | 34151 ft | 484 kts | 19° |
| 2026-04-30 21:37 | 41.76056 | -8.97943 | 34164 ft | 489 kts | 20° |
| 2026-04-30 21:37 | 41.82494 | -8.94944 | 34151 ft | 491 kts | 20° |
| 2026-04-30 21:38 | 41.88928 | -8.91820 | 34156 ft | 492 kts | 25° |
| 2026-04-30 21:38 | 41.95092 | -8.87943 | 34166 ft | 492 kts | 27° |
| 2026-04-30 21:39 | 42.01230 | -8.83842 | 34148 ft | 493 kts | 28° |
| 2026-04-30 21:39 | 42.07390 | -8.79775 | 34142 ft | 492 kts | 27° |
| 2026-04-30 21:40 | 42.13555 | -8.75765 | 34151 ft | 491 kts | 27° |
| 2026-04-30 21:40 | 42.19710 | -8.71778 | 34162 ft | 490 kts | 27° |
| 2026-04-30 21:41 | 42.25853 | -8.67792 | 34153 ft | 489 kts | 27° |
| 2026-04-30 21:41 | 42.31977 | -8.63805 | 34155 ft | 487 kts | 27° |
| 2026-04-30 21:42 | 42.38083 | -8.59820 | 34157 ft | 487 kts | 27° |
| 2026-04-30 21:42 | 42.44174 | -8.55836 | 34145 ft | 486 kts | 27° |
| 2026-04-30 21:43 | 42.49240 | -8.52515 | 34147 ft | 486 kts | 27° |
| 2026-04-30 21:43 | 42.56307 | -8.47873 | 34165 ft | 485 kts | 27° |
| 2026-04-30 21:44 | 42.62393 | -8.43865 | 34159 ft | 486 kts | 27° |
| 2026-04-30 21:44 | 42.68474 | -8.39853 | 34157 ft | 486 kts | 27° |
| 2026-04-30 21:45 | 42.74568 | -8.35823 | 34167 ft | 487 kts | 27° |
| 2026-04-30 21:45 | 42.80665 | -8.31782 | 34163 ft | 487 kts | 27° |
| 2026-04-30 21:46 | 42.86764 | -8.27731 | 34156 ft | 487 kts | 27° |
| 2026-04-30 21:46 | 42.92819 | -8.23701 | 34155 ft | 487 kts | 27° |
| 2026-04-30 21:47 | 42.98892 | -8.19649 | 34153 ft | 486 kts | 27° |
| 2026-04-30 21:47 | 43.04988 | -8.15574 | 34154 ft | 486 kts | 27° |
| 2026-04-30 21:48 | 43.11060 | -8.11505 | 34157 ft | 486 kts | 27° |
| 2026-04-30 21:48 | 43.17136 | -8.07424 | 34164 ft | 485 kts | 27° |
| 2026-04-30 21:49 | 43.23166 | -8.03365 | 34163 ft | 485 kts | 27° |
| 2026-04-30 21:49 | 43.29227 | -7.99276 | 34162 ft | 485 kts | 27° |
| 2026-04-30 21:50 | 43.35282 | -7.95183 | 34159 ft | 485 kts | 27° |
| 2026-04-30 21:50 | 43.41327 | -7.91087 | 34163 ft | 485 kts | 27° |
| 2026-04-30 21:51 | 43.47376 | -7.86978 | 34163 ft | 485 kts | 27° |
| 2026-04-30 21:51 | 43.53420 | -7.82864 | 34162 ft | 485 kts | 27° |
| 2026-04-30 21:52 | 43.59483 | -7.78728 | 34164 ft | 485 kts | 27° |
| 2026-04-30 21:52 | 43.65537 | -7.74589 | 34169 ft | 486 kts | 27° |
| 2026-04-30 21:53 | 43.70577 | -7.71135 | 34170 ft | 486 kts | 27° |
| 2026-04-30 21:53 | 43.76636 | -7.66975 | 34171 ft | 486 kts | 27° |
| 2026-04-30 21:54 | 43.83678 | -7.62129 | 34167 ft | 487 kts | 27° |
| 2026-04-30 21:54 | 43.88760 | -7.58623 | 34143 ft | 486 kts | 27° |
| 2026-04-30 21:55 | 43.94814 | -7.54438 | 34159 ft | 486 kts | 27° |
| 2026-04-30 21:55 | 44.00861 | -7.50248 | 34170 ft | 486 kts | 27° |
| 2026-04-30 21:56 | 44.06909 | -7.46048 | 34172 ft | 486 kts | 27° |
| 2026-04-30 21:56 | 44.12915 | -7.41868 | 34170 ft | 485 kts | 27° |
| 2026-04-30 21:57 | 44.18948 | -7.37658 | 34173 ft | 485 kts | 27° |
| 2026-04-30 21:57 | 44.24989 | -7.33434 | 34168 ft | 485 kts | 27° |
| 2026-04-30 21:58 | 44.31031 | -7.29199 | 34166 ft | 485 kts | 27° |
| 2026-04-30 21:58 | 44.37068 | -7.24958 | 34172 ft | 485 kts | 27° |
| 2026-04-30 21:59 | 44.43060 | -7.20738 | 34152 ft | 485 kts | 27° |
| 2026-04-30 22:00 | 44.52102 | -7.14353 | 34175 ft | 484 kts | 27° |
| 2026-04-30 22:00 | 44.61140 | -7.07948 | 34206 ft | 487 kts | 27° |
| 2026-04-30 22:01 | 44.64169 | -7.05795 | 34348 ft | 488 kts | 27° |
| 2026-04-30 22:01 | 44.67193 | -7.03644 | 34619 ft | 486 kts | 27° |
| 2026-04-30 22:01 | 44.70202 | -7.01502 | 34915 ft | 484 kts | 27° |
| 2026-04-30 22:01 | 44.73205 | -6.99361 | 35144 ft | 483 kts | 27° |
| 2026-04-30 22:02 | 44.76205 | -6.97219 | 35325 ft | 484 kts | 27° |
| 2026-04-30 22:02 | 44.79170 | -6.95101 | 35521 ft | 484 kts | 27° |
| 2026-04-30 22:02 | 44.82171 | -6.92954 | 35713 ft | 484 kts | 27° |
| 2026-04-30 22:02 | 44.85152 | -6.90756 | 35902 ft | 483 kts | 29° |
| 2026-04-30 22:03 | 44.88082 | -6.88427 | 36108 ft | 482 kts | 31° |
| 2026-04-30 22:03 | 44.90976 | -6.86037 | 36156 ft | 484 kts | 31° |
| 2026-04-30 22:03 | 44.96774 | -6.81173 | 36169 ft | 483 kts | 31° |
| 2026-04-30 22:04 | 45.02540 | -6.76360 | 36175 ft | 480 kts | 31° |
| 2026-04-30 22:05 | 45.11157 | -6.69220 | 36179 ft | 477 kts | 31° |
| 2026-04-30 22:05 | 45.16876 | -6.64481 | 36180 ft | 476 kts | 31° |
| 2026-04-30 22:06 | 45.22564 | -6.59755 | 36182 ft | 477 kts | 31° |
| 2026-04-30 22:06 | 45.31170 | -6.52580 | 36187 ft | 479 kts | 30° |
| 2026-04-30 22:07 | 45.36929 | -6.47765 | 36184 ft | 481 kts | 30° |
| 2026-04-30 22:07 | 45.42705 | -6.42923 | 36186 ft | 483 kts | 30° |
| 2026-04-30 22:08 | 45.48507 | -6.38049 | 36181 ft | 484 kts | 30° |
| 2026-04-30 22:08 | 45.54314 | -6.33157 | 36179 ft | 485 kts | 30° |
| 2026-04-30 22:09 | 45.60087 | -6.28283 | 36178 ft | 485 kts | 30° |
| 2026-04-30 22:09 | 45.65906 | -6.23358 | 36174 ft | 485 kts | 30° |
| 2026-04-30 22:10 | 45.71701 | -6.18441 | 36178 ft | 484 kts | 30° |
| 2026-04-30 22:10 | 45.77480 | -6.13527 | 36177 ft | 482 kts | 30° |
| 2026-04-30 22:11 | 45.86121 | -6.06155 | 36181 ft | 481 kts | 30° |
| 2026-04-30 22:12 | 45.91865 | -6.01240 | 36182 ft | 480 kts | 30° |
| 2026-04-30 22:12 | 45.97556 | -5.96359 | 36182 ft | 479 kts | 30° |
| 2026-04-30 22:13 | 46.03278 | -5.91439 | 36189 ft | 478 kts | 30° |
| 2026-04-30 22:13 | 46.08993 | -5.86512 | 36181 ft | 478 kts | 30° |
| 2026-04-30 22:14 | 46.14698 | -5.81583 | 36182 ft | 478 kts | 30° |
| 2026-04-30 22:14 | 46.20402 | -5.76642 | 36182 ft | 478 kts | 30° |
| 2026-04-30 22:15 | 46.26103 | -5.71693 | 36184 ft | 478 kts | 30° |
| 2026-04-30 22:15 | 46.31770 | -5.66760 | 36183 ft | 478 kts | 30° |
| 2026-04-30 22:16 | 46.37476 | -5.61781 | 36167 ft | 479 kts | 30° |
| 2026-04-30 22:17 | 46.48895 | -5.51780 | 36175 ft | 479 kts | 30° |
| 2026-04-30 22:17 | 46.57395 | -5.44303 | 36177 ft | 478 kts | 30° |
| 2026-04-30 22:18 | 46.65934 | -5.36764 | 36176 ft | 477 kts | 30° |
| 2026-04-30 22:19 | 46.74450 | -5.29218 | 36174 ft | 476 kts | 30° |
| 2026-04-30 22:20 | 46.82922 | -5.21681 | 36168 ft | 474 kts | 30° |
| 2026-04-30 22:20 | 46.91333 | -5.14172 | 36170 ft | 473 kts | 30° |
| 2026-04-30 22:21 | 46.96940 | -5.09151 | 36174 ft | 472 kts | 30° |
| 2026-04-30 22:21 | 47.02532 | -5.04129 | 36173 ft | 471 kts | 30° |
| 2026-04-30 22:22 | 47.08113 | -4.99106 | 36181 ft | 470 kts | 30° |
| 2026-04-30 22:22 | 47.13693 | -4.94072 | 36155 ft | 470 kts | 30° |
| 2026-04-30 22:23 | 47.19227 | -4.89066 | 36167 ft | 470 kts | 30° |
| 2026-04-30 22:23 | 47.24804 | -4.84009 | 36168 ft | 469 kts | 30° |
| 2026-04-30 22:24 | 47.30357 | -4.78960 | 36171 ft | 469 kts | 31° |
| 2026-04-30 22:24 | 47.35910 | -4.73900 | 36165 ft | 469 kts | 31° |
| 2026-04-30 22:25 | 47.41465 | -4.68825 | 36165 ft | 469 kts | 31° |
| 2026-04-30 22:25 | 47.46969 | -4.63783 | 36164 ft | 469 kts | 31° |
| 2026-04-30 22:26 | 47.55285 | -4.56142 | 36159 ft | 469 kts | 31° |
| 2026-04-30 22:27 | 47.60827 | -4.51034 | 36156 ft | 469 kts | 31° |
| 2026-04-30 22:27 | 47.69139 | -4.43347 | 36153 ft | 470 kts | 31° |
| 2026-04-30 22:28 | 47.77476 | -4.35608 | 36153 ft | 470 kts | 31° |
| 2026-04-30 22:29 | 47.86218 | -4.29315 | 36164 ft | 467 kts | 14° |
| 2026-04-30 22:29 | 47.89348 | -4.28006 | 36157 ft | 468 kts | 14° |
| 2026-04-30 22:31 | 48.11304 | -4.18800 | 36154 ft | 467 kts | 15° |
| 2026-04-30 22:32 | 48.26848 | -4.12075 | 36146 ft | 465 kts | 15° |
| 2026-04-30 22:33 | 48.42326 | -4.05343 | 36144 ft | 463 kts | 15° |
| 2026-04-30 22:35 | 48.57798 | -3.98571 | 36139 ft | 463 kts | 15° |
| 2026-04-30 22:36 | 48.73280 | -3.91750 | 36131 ft | 466 kts | 15° |
| 2026-04-30 22:37 | 48.85739 | -3.86229 | 36143 ft | 466 kts | 15° |
| 2026-04-30 22:38 | 48.98202 | -3.80902 | 36135 ft | 465 kts | 8° |
| 2026-04-30 22:39 | 49.07845 | -3.80149 | 36148 ft | 462 kts | 0° |
| 2026-04-30 22:40 | 49.27126 | -3.79119 | 36138 ft | 462 kts | 1° |
| 2026-04-30 22:41 | 49.42101 | -3.78194 | 36138 ft | 463 kts | 1° |
| 2026-04-30 22:43 | 49.61500 | -3.76997 | 36543 ft | 466 kts | 1° |
| 2026-04-30 22:43 | 49.67964 | -3.76596 | 36974 ft | 464 kts | 1° |
| 2026-04-30 22:44 | 49.74429 | -3.76042 | 37129 ft | 467 kts | 4° |
| 2026-04-30 22:45 | 49.93852 | -3.73609 | 37127 ft | 466 kts | 4° |
| 2026-04-30 22:47 | 50.13204 | -3.71297 | 37132 ft | 464 kts | 4° |
| 2026-04-30 22:48 | 50.26070 | -3.69747 | 37133 ft | 466 kts | 4° |
| 2026-04-30 22:49 | 50.45552 | -3.67208 | 37126 ft | 469 kts | 7° |
| 2026-04-30 22:51 | 50.64978 | -3.63413 | 37124 ft | 469 kts | 7° |
| 2026-04-30 22:52 | 50.74698 | -3.61558 | 37124 ft | 468 kts | 7° |
| 2026-04-30 22:53 | 50.87584 | -3.59075 | 37122 ft | 467 kts | 7° |
| 2026-04-30 22:53 | 50.97260 | -3.57201 | 37125 ft | 466 kts | 7° |
| 2026-04-30 22:55 | 51.13292 | -3.54079 | 37123 ft | 465 kts | 7° |
| 2026-04-30 22:56 | 51.26150 | -3.51560 | 37125 ft | 465 kts | 7° |
| 2026-04-30 22:57 | 51.42205 | -3.48408 | 37138 ft | 467 kts | 7° |
| 2026-04-30 22:58 | 51.55148 | -3.45849 | 37127 ft | 470 kts | 7° |
| 2026-04-30 22:59 | 51.64944 | -3.43903 | 36578 ft | 479 kts | 7° |
| 2026-04-30 22:59 | 51.74795 | -3.41937 | 34896 ft | 477 kts | 7° |